METAR Data
IDs: Format: Raw Decoded Include TAF

Data at: 0356 UTC 21 Sep 2018

KMMH 210335Z AUTO 00000KT 10SM CLR 12/M09 A3024 RMK AO2 T01191091
KMMH 210315Z AUTO 36003KT 10SM CLR 12/M09 A3023 RMK AO2 T01201093
KMMH 210255Z AUTO 00000KT 10SM CLR 13/M09 A3022 RMK AO2 T01261092
KMMH 210235Z AUTO 01003KT 10SM CLR 13/M10 A3021 RMK AO2 T01301099
KMMH 210215Z AUTO 00000KT 10SM CLR 16/M09 A3020 RMK AO2 T01551086
KMMH 210155Z AUTO 12005KT 10SM CLR 18/M09 A3020 RMK AO2 T01781092
KMMH 210135Z AUTO 11007KT 10SM CLR 19/M08 A3019 RMK AO2 T01901085
KMMH 210115Z AUTO 12006KT 10SM CLR 20/M07 A3018 RMK AO2 T02021071
KMMH 210055Z AUTO 11009KT 10SM CLR 21/M08 A3017 RMK AO2 T02131077
KMMH 210035Z AUTO 12008G14KT 10SM CLR 22/M10 A3017 RMK AO2 T02211096
KMMH 210015Z AUTO 11008KT 10SM CLR 23/M09 A3017 RMK AO2 T02251092
KMMH 202355Z AUTO 11008KT 10SM CLR 23/M09 A3017 RMK AO2 T02301091 10242 20176
KMMH 202335Z AUTO 11008KT 10SM CLR 23/M09 A3017 RMK AO2 T02341090
KMMH 202315Z AUTO 12009G15KT 10SM CLR 24/M09 A3016 RMK AO2 T02381091
KMMH 202255Z AUTO 11008KT 10SM CLR 24/M09 A3017 RMK AO2 T02391090
KMMH 202235Z AUTO 11008KT 10SM CLR 24/M09 A3016 RMK AO2 T02371093
KMMH 202215Z AUTO 12006KT 10SM CLR 24/M10 A3017 RMK AO2 T02391096
KMMH 202155Z AUTO 11009KT 10SM CLR 24/M10 A3017 RMK AO2 T02381096
KMMH 202135Z AUTO 12008KT 10SM CLR 24/M10 A3018 RMK AO2 T02361096
KMMH 202115Z AUTO 13009G14KT 10SM CLR 24/M09 A3018 RMK AO2 T02351095
KMMH 202055Z AUTO 12008KT 10SM CLR 23/M09 A3018 RMK AO2 T02321094
KMMH 202035Z AUTO 10007KT 10SM CLR 23/M09 A3019 RMK AO2 T02261094
KMMH 202015Z AUTO 11007KT 10SM CLR 22/M10 A3019 RMK AO2 T02201100
KMMH 201955Z AUTO 13007KT 10SM CLR 22/M09 A3019 RMK AO2 T02171091
KMMH 201935Z AUTO 18003KT 10SM CLR 21/M09 A3020 RMK AO2 T02141091
KMMH 201915Z AUTO 00000KT 10SM CLR 20/M08 A3021 RMK AO2 T01991084
KMMH 201855Z AUTO 14004KT 10SM CLR 19/M08 A3022 RMK AO2 T01921084
KMMH 201835Z AUTO 13006KT 10SM CLR 19/M08 A3022 RMK AO2 T01861084
KMMH 201815Z AUTO 12004KT 10SM CLR 18/M09 A3022 RMK AO2 T01821089
KMMH 201755Z AUTO 13005KT 10SM CLR 18/M09 A3023 RMK AO2 T01801087 10180 20025
KMMH 201735Z AUTO 13004KT 10SM CLR 17/M09 A3023 RMK AO2 T01701092
KMMH 201715Z AUTO 16003KT 10SM SCT002 16/M07 A3023 RMK AO2 T01631075
KMMH 201655Z AUTO 00000KT 10SM CLR 15/M06 A3023 RMK AO2 T01471064
KMMH 201635Z AUTO 13003KT 10SM CLR 14/M05 A3023 RMK AO2 T01381053
KMMH 201615Z AUTO 15004KT 10SM CLR 13/M05 A3022 RMK AO2 T01261050
KMMH 201555Z AUTO 13005KT 10SM CLR 12/M05 A3022 RMK AO2 T01171052
KMMH 201535Z AUTO 00000KT 10SM CLR 10/M07 A3022 RMK AO2 T00981072
KMMH 201515Z AUTO 29003KT 10SM CLR 08/M08 A3022 RMK AO2 T00811076
KMMH 201455Z AUTO 30004KT 10SM CLR 07/M08 A3022 RMK AO2 T00691078
KMMH 201435Z AUTO 00000KT 10SM CLR 05/M08 A3021 RMK AO2 T00501081
KMMH 201415Z AUTO 00000KT 10SM CLR 03/M08 A3020 RMK AO2 T00271084
KMMH 201355Z AUTO 00000KT 10SM CLR 03/M09 A3020 RMK AO2 T00331086
KMMH 201330Z AUTO 29003KT 10SM CLR 03/M09 A3019 RMK AO2 T00291090
KMMH 201315Z AUTO 30007KT 10SM CLR 03/M09 A3019 RMK AO2 T00311091
KMMH 201255Z AUTO 28007KT 10SM CLR 04/M09 A3018 RMK AO2 T00361092
KMMH 201235Z AUTO 35003KT 10SM CLR 03/M09 A3018 RMK AO2 T00311095
KMMH 201215Z AUTO 29007KT 10SM CLR 04/M10 A3017 RMK AO2 T00371099
KMMH 201155Z AUTO 28011KT 10SM CLR 03/M10 A3017 RMK AO2 T00331097 10088 20027
KMMH 201135Z AUTO 30006KT 10SM CLR 04/M10 A3017 RMK AO2 T00371100
KMMH 201115Z AUTO 29006KT 10SM CLR 04/M10 A3017 RMK AO2 T00351102
KMMH 201055Z AUTO 35003KT 10SM CLR 04/M10 A3016 RMK AO2 T00381101
KMMH 201035Z AUTO 27011KT 10SM CLR 06/M10 A3017 RMK AO2 T00561101
KMMH 201015Z AUTO 28007KT 10SM CLR 04/M11 A3017 RMK AO2 T00441108
KMMH 200955Z AUTO 28009KT 10SM CLR 04/M11 A3017 RMK AO2 T00351108
KMMH 200935Z AUTO 28010KT 10SM CLR 05/M11 A3016 RMK AO2 T00511110
KMMH 200915Z AUTO 32005KT 10SM CLR 05/M11 A3016 RMK AO2 T00511110
KMMH 200855Z AUTO 26011KT 10SM CLR 07/M11 A3016 RMK AO2 T00651112
KMMH 200835Z AUTO 28010KT 10SM CLR 07/M11 A3016 RMK AO2 T00671112
KMMH 200815Z AUTO 28007KT 10SM CLR 07/M11 A3015 RMK AO2 T00661112
KMMH 200755Z AUTO 28009KT 10SM CLR 07/M11 A3016 RMK AO2 T00681112
KMMH 200735Z AUTO 28008KT 10SM CLR 07/M11 A3015 RMK AO2 T00741110
KMMH 200715Z AUTO 28009KT 10SM CLR 08/M11 A3015 RMK AO2 T00771106
KMMH 200655Z AUTO 28011KT 10SM CLR 08/M10 A3015 RMK AO2 T00831105
KMMH 200635Z AUTO 28007KT 10SM CLR 08/M10 A3015 RMK AO2 T00811100
KMMH 200615Z AUTO 27010KT 10SM CLR 09/M09 A3014 RMK AO2 T00871095
KMMH 200555Z AUTO 28007KT 10SM CLR 09/M09 A3014 RMK AO2 T00861087 10228 20083 402411019
KMMH 200535Z AUTO 28011KT 10SM CLR 09/M10 A3014 RMK AO2 T00911097
KMMH 200515Z AUTO 27012KT 10SM CLR 10/M07 A3014 RMK AO2 T00971075
KMMH 200455Z AUTO 27011KT 10SM CLR 10/M07 A3014 RMK AO2 T01021072
KMMH 200435Z AUTO 28009KT 10SM CLR 12/M08 A3013 RMK AO2 T01191082
KMMH 200415Z AUTO 28009KT 10SM CLR 13/M07 A3012 RMK AO2 T01291069
KMMH 200355Z AUTO 27012KT 10SM CLR 13/M04 A3011 RMK AO2 T01331044
KMMH 200335Z AUTO 27009KT 10SM CLR 13/M04 A3009 RMK AO2 T01261042
KMMH 200315Z AUTO 31005KT 10SM CLR 13/M04 A3007 RMK AO2 T01251038
KMMH 200255Z AUTO 28010KT 10SM CLR 14/M03 A3007 RMK AO2 T01441026
KMMH 200235Z AUTO 29004KT 10SM CLR 14/M02 A3006 RMK AO2 T01431025
KMMH 200215Z AUTO 29007KT 10SM CLR 15/M03 A3006 RMK AO2 T01511026
KMMH 200155Z AUTO 32007KT 10SM CLR 17/M03 A3005 RMK AO2 T01711030
KMMH 200135Z AUTO 30013KT 10SM CLR 19/M04 A3004 RMK AO2 T01861037
KMMH 200115Z AUTO 30012KT 10SM CLR 20/M05 A3004 RMK AO2 T01981046
KMMH 200055Z AUTO 30014KT 10SM CLR 21/M06 A3004 RMK AO2 T02101061
KMMH 200035Z AUTO 29014KT 10SM CLR 22/M07 A3004 RMK AO2 T02171070
KMMH 200015Z AUTO 29016G20KT 10SM CLR 22/M09 A3003 RMK AO2 T02221087
KMMH 192355Z AUTO 29013G20KT 10SM CLR 23/M10 A3003 RMK AO2 T02281100 10241 20209
KMMH 192335Z AUTO 29014G18KT 10SM CLR 23/M10 A3003 RMK AO2 T02311101
KMMH 192315Z AUTO 30012KT 10SM CLR 24/M12 A3003 RMK AO2 T02361117
KMMH 192255Z AUTO 31013G18KT 10SM CLR 23/M12 A3003 RMK AO2 T02341123
KMMH 192235Z AUTO 32012G15KT 10SM CLR 24/M14 A3004 RMK AO2 T02411139
KMMH 192215Z AUTO 31008G19KT 10SM CLR 24/M15 A3004 RMK AO2 T02351149
KMMH 192155Z AUTO 33006G18KT 10SM CLR 24/M15 A3004 RMK AO2 T02381153
KMMH 192135Z AUTO 30017G25KT 10SM CLR 23/M16 A3005 RMK AO2 T02331163
KMMH 192115Z AUTO 35007G21KT 10SM CLR 23/M17 A3005 RMK AO2 T02331172
KMMH 192055Z AUTO 33011G20KT 10SM CLR 24/M17 A3006 RMK AO2 T02361172
KMMH 192035Z AUTO 31010G19KT 10SM CLR 23/M19 A3006 RMK AO2 T02321190
KMMH 192015Z AUTO 30016G21KT 10SM CLR 23/M19 A3007 RMK AO2 T02321189
KMMH 191955Z AUTO 32008G14KT 10SM CLR 22/M19 A3007 RMK AO2 T02241186
KMMH 191935Z AUTO 23006KT 210V310 10SM CLR 22/M20 A3007 RMK AO2 T02201197
KMMH 191915Z AUTO 26012G19KT 10SM CLR 22/M20 A3007 RMK AO2 T02211200
KMMH 191855Z AUTO 27012G19KT 10SM CLR 22/M20 A3008 RMK AO2 T02181198
KMMH 191835Z AUTO 26012G16KT 10SM CLR 21/M19 A3009 RMK AO2 T02141190
KMMH 191815Z AUTO 21006KT 10SM CLR 21/M13 A3009 RMK AO2 T02121135
KMMH 191755Z AUTO 11004G09KT 10SM CLR 21/M13 A3009 RMK AO2 T02071133 10208 21019
KMMH 191735Z AUTO 15010KT 090V180 10SM CLR 20/M14 A3008 RMK AO2 T02041141
KMMH 191715Z AUTO 16003KT 10SM CLR 19/M11 A3009 RMK AO2 T01861115
KMMH 191655Z AUTO 12005KT 10SM CLR 17/M10 A3010 RMK AO2 T01691103
KMMH 191635Z AUTO 12005KT 10SM CLR 16/M11 A3009 RMK AO2 T01621111
KMMH 191615Z AUTO 12005KT 10SM CLR 16/M12 A3009 RMK AO2 T01581121